Time;durP1;ratioP1;P1;durP2;ratioP2;P2;SDS_P1;SDS_P2;PMS_P1;PMS_P2;Temp;Humidity;BMP_temperature;BMP_pressure;BME280_temperature;BME280_humidity;BME280_pressure;Samples;Min_cycle;Max_cycle;Signal;HPM_P1;HPM_P2
2021/12/03 00:00:33;;;;;;;20.12;7.75;;;;;;;7.38;78.69;99945.53;1892822;76;22561;-63
2021/12/03 00:03:07;;;;;;;12.43;4.47;;;;;;;7.41;78.79;99953.20;1892824;76;22135;-62
2021/12/03 00:05:39;;;;;;;17.30;6.83;;;;;;;7.46;78.75;99947.02;1874016;76;22772;-63
2021/12/03 00:08:29;;;;;;;13.25;5.70;;;;;;;7.52;78.75;99946.95;1874000;76;22128;-62
2021/12/03 00:11:03;;;;;;;23.05;10.30;;;;;;;7.53;78.75;99945.97;1874030;76;22563;-62
2021/12/03 00:13:35;;;;;;;30.37;14.68;;;;;;;7.52;78.79;99947.78;1874032;76;22599;-65
2021/12/03 00:16:07;;;;;;;19.17;7.67;;;;;;;7.57;78.79;99944.72;1874014;76;22162;-65
2021/12/03 00:18:58;;;;;;;17.55;7.42;;;;;;;7.61;78.66;99947.45;1892796;76;22561;-63
2021/12/03 00:21:29;;;;;;;19.17;5.20;;;;;;;7.63;78.56;99947.67;1874037;76;22129;-64
2021/12/03 00:24:02;;;;;;;14.43;4.47;;;;;;;7.64;78.47;99948.02;1874035;76;22121;-63
2021/12/03 00:27:12;;;;;;;19.25;9.25;;;;;;;7.67;78.43;99949.06;1875798;75;22189;-64
2021/12/03 00:29:44;;;;;;;15.13;5.45;;;;;;;7.68;78.50;99949.90;1874144;76;22146;-64
2021/12/03 00:32:35;;;;;;;21.87;9.08;;;;;;;7.68;78.50;99956.51;1873895;76;22128;-62
2021/12/03 00:35:09;;;;;;;14.65;5.40;;;;;;;7.65;78.53;99951.48;1874028;76;22161;-62
2021/12/03 00:37:41;;;;;;;14.53;5.25;;;;;;;7.65;78.58;99949.67;1873926;76;22574;-63
2021/12/03 00:40:35;;;;;;;22.62;9.78;;;;;;;7.65;78.61;99952.31;1873994;76;23617;-63
2021/12/03 00:43:07;;;;;;;23.85;9.93;;;;;;;7.67;78.56;99954.84;1873903;76;22150;-62
2021/12/03 00:45:39;;;;;;;16.23;6.33;;;;;;;7.71;78.54;99954.05;1892837;76;22124;-65
2021/12/03 00:48:30;;;;;;;20.50;6.55;;;;;;;7.74;78.51;99949.83;1873995;76;22158;-65
2021/12/03 00:51:02;;;;;;;15.03;5.83;;;;;;;7.76;78.47;99946.54;1874039;76;22117;-65
2021/12/03 00:53:34;;;;;;;18.32;7.03;;;;;;;7.79;78.35;99949.75;1892816;76;22200;-65
2021/12/03 00:56:07;;;;;;;17.65;6.08;;;;;;;7.79;78.30;99948.91;1874037;76;22137;-63
2021/12/03 00:58:58;;;;;;;15.88;6.10;;;;;;;7.80;78.19;99945.29;1874011;76;22137;-63
2021/12/03 01:01:29;;;;;;;16.90;5.87;;;;;;;7.76;78.21;99947.37;1874026;76;22154;-63
2021/12/03 01:04:20;;;;;;;18.07;5.25;;;;;;;7.77;78.25;99944.27;1873995;76;22120;-63
2021/12/03 01:06:52;;;;;;;19.67;7.35;;;;;;;7.77;78.25;99940.30;1892839;76;22128;-63
2021/12/03 01:09:24;;;;;;;23.55;7.90;;;;;;;7.77;78.33;99945.10;1873928;76;22142;-63
2021/12/03 01:12:15;;;;;;;22.80;6.70;;;;;;;7.75;78.39;99949.67;1892770;76;22127;-63
2021/12/03 01:14:47;;;;;;;19.85;7.47;;;;;;;7.74;78.49;99950.66;1874126;76;22145;-63
2021/12/03 01:17:19;;;;;;;19.73;7.33;;;;;;;7.74;78.52;99948.02;1874033;76;22162;-63
2021/12/03 01:19:50;;;;;;;16.50;6.33;;;;;;;7.76;78.58;99951.34;1874030;76;22120;-63
2021/12/03 01:22:22;;;;;;;19.27;6.30;;;;;;;7.77;78.61;99950.88;1874027;76;22142;-63
2021/12/03 01:24:54;;;;;;;16.75;6.60;;;;;;;7.79;78.63;99952.88;1874044;76;22150;-63
2021/12/03 01:27:26;;;;;;;20.77;5.87;;;;;;;7.79;78.74;99952.39;1874028;76;22132;-65
2021/12/03 01:30:19;;;;;;;19.27;6.05;;;;;;;7.79;78.86;99955.53;1871299;76;22128;-63
2021/12/03 01:32:51;;;;;;;18.65;5.85;;;;;;;7.79;78.95;99960.81;1874024;76;22121;-63
2021/12/03 01:35:42;;;;;;;14.35;5.28;;;;;;;7.80;79.05;99954.05;1892889;76;22128;-65
2021/12/03 01:38:14;;;;;;;19.27;8.08;;;;;;;7.82;79.08;99955.27;1874023;76;22121;-62
2021/12/03 01:41:05;;;;;;;18.27;7.03;;;;;;;7.81;79.17;99956.20;1892799;76;22120;-62
2021/12/03 01:43:37;;;;;;;15.93;6.97;;;;;;;7.82;79.28;99957.91;1890343;76;22597;-62
2021/12/03 01:46:10;;;;;;;17.20;6.37;;;;;;;7.83;79.33;99956.44;1874031;76;22124;-62
2021/12/03 01:49:00;;;;;;;18.48;6.78;;;;;;;7.86;79.42;99959.30;1873988;76;22646;-62
2021/12/03 01:51:32;;;;;;;19.90;6.90;;;;;;;7.87;79.49;99959.64;1892804;76;22148;-63
2021/12/03 01:54:23;;;;;;;13.40;5.28;;;;;;;7.90;79.52;99961.98;1873989;76;22570;-63
2021/12/03 01:56:55;;;;;;;23.27;6.67;;;;;;;7.91;79.50;99965.00;1892837;76;22120;-63
2021/12/03 01:59:27;;;;;;;13.83;5.20;;;;;;;7.94;79.49;99965.53;1874016;76;22569;-65
2021/12/03 02:02:17;;;;;;;19.00;6.17;;;;;;;7.97;79.47;99961.79;1873998;76;22154;-65
2021/12/03 02:04:49;;;;;;;104.78;74.65;;;;;;;7.97;79.47;99968.41;1892816;76;22169;-65
2021/12/03 02:07:21;;;;;;;19.15;7.60;;;;;;;7.98;79.44;99964.78;1874027;76;22158;-62
2021/12/03 02:09:52;;;;;;;20.82;6.95;;;;;;;7.99;79.45;99971.73;1874030;76;22121;-63
2021/12/03 02:12:43;;;;;;;13.18;5.83;;;;;;;7.97;79.52;99968.41;1874005;76;22132;-62
2021/12/03 02:15:15;;;;;;;17.77;5.97;;;;;;;7.98;79.55;99961.30;1892814;76;22573;-62
2021/12/03 02:18:06;;;;;;;16.37;5.47;;;;;;;7.98;79.56;99971.88;1873865;76;22142;-63
2021/12/03 02:20:52;;;;;;;17.57;5.35;;;;;;;7.97;79.60;99972.86;1873880;76;22182;-63
2021/12/03 02:23:25;;;;;;;17.23;6.95;;;;;;;7.98;79.62;99971.88;1874015;76;22606;-63
2021/12/03 02:25:58;;;;;;;17.00;7.90;;;;;;;7.99;79.65;99973.05;1892709;76;22573;-62
2021/12/03 02:28:51;;;;;;;34.85;27.58;;;;;;;8.03;79.69;99967.83;1874026;76;22156;-63
2021/12/03 02:31:24;;;;;;;19.70;8.20;;;;;;;8.04;79.67;99958.91;1874037;76;22142;-63
2021/12/03 02:33:56;;;;;;;21.73;7.90;;;;;;;8.08;79.64;99964.77;1874037;76;22545;-63
2021/12/03 02:36:46;;;;;;;19.10;8.00;;;;;;;8.10;79.54;99976.89;1874019;76;22130;-62
2021/12/03 02:39:18;;;;;;;16.37;6.20;;;;;;;8.11;79.47;99974.59;1874028;76;22125;-64
2021/12/03 02:41:50;;;;;;;14.43;5.12;;;;;;;8.10;79.42;99968.95;1874126;76;22125;-63
2021/12/03 02:44:22;;;;;;;11.48;4.47;;;;;;;8.13;79.41;99969.98;1892803;76;22152;-63
2021/12/03 02:46:54;;;;;;;18.05;5.97;;;;;;;8.15;79.39;99979.12;1873918;76;22185;-64
2021/12/03 02:49:26;;;;;;;20.57;6.33;;;;;;;8.14;79.45;99972.99;1892830;76;22123;-62
2021/12/03 02:51:58;;;;;;;22.35;10.45;;;;;;;8.17;79.42;99974.02;1871308;76;22136;-63
2021/12/03 02:54:29;;;;;;;19.48;7.03;;;;;;;8.16;79.41;99972.84;1874011;76;22590;-63
2021/12/03 02:57:04;;;;;;;19.52;6.65;;;;;;;8.15;79.43;99974.66;1874030;76;22120;-63
2021/12/03 02:59:35;;;;;;;14.47;7.42;;;;;;;8.13;79.54;99971.79;1874022;76;22128;-64
2021/12/03 03:02:07;;;;;;;18.30;6.30;;;;;;;8.13;79.64;99969.98;1874024;76;22124;-63
2021/12/03 03:04:39;;;;;;;17.35;6.15;;;;;;;8.17;79.69;99979.80;1892791;76;22128;-65
2021/12/03 03:07:31;;;;;;;17.15;6.80;;;;;;;8.22;79.73;99978.05;1892777;76;22157;-63
2021/12/03 03:10:10;;;;;;;21.35;6.87;;;;;;;8.25;79.71;99979.94;1874033;76;22128;-64
2021/12/03 03:12:42;;;;;;;18.20;7.00;;;;;;;8.27;79.62;99973.16;1874009;76;22561;-63
2021/12/03 03:15:16;;;;;;;16.17;5.62;;;;;;;8.29;79.59;99979.17;1874018;76;22148;-63
2021/12/03 03:17:48;;;;;;;14.15;4.80;;;;;;;8.29;79.58;99977.84;1874148;76;22120;-63
2021/12/03 03:20:41;;;;;;;23.38;11.28;;;;;;;8.31;79.59;99975.88;1874097;76;22129;-63
2021/12/03 03:23:13;;;;;;;36.15;18.50;;;;;;;8.33;79.67;99973.94;1874032;76;22128;-63
2021/12/03 03:26:04;;;;;;;20.15;6.87;;;;;;;8.32;79.73;99974.41;1892770;76;22160;-65
2021/12/03 03:28:36;;;;;;;37.88;25.62;;;;;;;8.32;79.79;99980.19;1892928;76;22545;-62
2021/12/03 03:31:08;;;;;;;17.35;6.90;;;;;;;8.32;79.81;99977.55;1874038;76;22121;-63
2021/12/03 03:33:40;;;;;;;18.57;6.55;;;;;;;8.33;79.81;99976.59;1874031;76;22121;-62
2021/12/03 03:36:12;;;;;;;34.00;20.62;;;;;;;8.35;79.77;99980.75;1874023;76;22142;-62
2021/12/03 03:38:44;;;;;;;28.50;17.85;;;;;;;8.39;79.82;99978.69;1873996;76;22124;-62
2021/12/03 03:41:15;;;;;;;15.98;5.45;;;;;;;8.39;79.86;99974.72;1874123;76;22138;-65
2021/12/03 03:44:07;;;;;;;17.27;5.20;;;;;;;8.39;79.97;99981.34;1892770;76;22149;-64
2021/12/03 03:46:39;;;;;;;19.85;7.45;;;;;;;8.44;79.97;99983.06;1874019;76;22117;-62
2021/12/03 03:49:29;;;;;;;16.23;5.47;;;;;;;8.45;79.93;99984.73;1873910;76;22141;-62
2021/12/03 03:52:03;;;;;;;22.17;8.83;;;;;;;8.47;79.95;99988.55;1873914;76;22129;-64
2021/12/03 03:54:34;;;;;;;18.23;6.97;;;;;;;8.47;79.90;99989.41;1873912;76;22570;-62
2021/12/03 03:57:25;;;;;;;19.67;6.30;;;;;;;8.51;79.88;99992.09;1873960;76;22174;-62
2021/12/03 03:59:57;;;;;;;16.05;6.12;;;;;;;8.54;79.88;99993.14;1892814;76;22116;-62
2021/12/03 04:02:48;;;;;;;138.45;101.80;;;;;;;8.59;79.88;99983.44;1892761;76;22569;-65
2021/12/03 04:05:20;;;;;;;35.85;23.07;;;;;;;8.60;79.82;99991.23;1892940;76;22127;-62
2021/12/03 04:08:11;;;;;;;30.50;17.40;;;;;;;8.62;79.79;99999.05;1873998;76;22133;-62
2021/12/03 04:10:42;;;;;;;18.30;7.00;;;;;;;8.62;79.68;99999.88;1874018;76;22125;-62
2021/12/03 04:13:33;;;;;;;58.60;52.78;;;;;;;8.62;79.64;99990.62;1892890;76;22899;-62
2021/12/03 04:16:05;;;;;;;22.20;10.15;;;;;;;8.64;79.67;99992.62;1874035;76;22125;-62
2021/12/03 04:18:38;;;;;;;22.15;9.80;;;;;;;8.67;79.65;99998.12;1892728;76;22164;-63
2021/12/03 04:21:28;;;;;;;21.02;8.50;;;;;;;8.68;79.67;100003.27;1873971;76;22132;-62
2021/12/03 04:24:00;;;;;;;33.75;10.55;;;;;;;8.68;79.65;100003.77;1871234;76;22137;-63
2021/12/03 04:26:32;;;;;;;30.43;11.65;;;;;;;8.69;79.63;100008.91;1874027;76;22554;-63
2021/12/03 04:29:23;;;;;;;28.02;10.95;;;;;;;8.70;79.60;100001.80;1873978;76;22149;-62
2021/12/03 04:31:55;;;;;;;22.52;9.33;;;;;;;8.70;79.57;100012.39;1892823;76;22151;-63
2021/12/03 04:34:46;;;;;;;23.85;9.50;;;;;;;8.72;79.56;100009.62;1873980;76;22549;-65
2021/12/03 04:37:18;;;;;;;21.42;7.92;;;;;;;8.73;79.55;100005.48;1874127;76;22146;-62
2021/12/03 04:39:51;;;;;;;18.57;8.68;;;;;;;8.75;79.53;100004.02;1871313;76;22145;-64
2021/12/03 04:42:23;;;;;;;16.57;7.05;;;;;;;8.76;79.46;100009.19;1874025;76;22133;-64
2021/12/03 04:44:54;;;;;;;22.10;8.25;;;;;;;8.74;79.43;100007.65;1874021;76;22140;-65
2021/12/03 04:47:48;;;;;;;19.17;7.12;;;;;;;8.70;79.49;100015.90;1873984;76;22570;-63
2021/12/03 04:50:22;;;;;;;20.32;7.80;;;;;;;8.69;79.51;100011.55;1874043;76;22570;-65
2021/12/03 04:52:55;;;;;;;17.48;6.47;;;;;;;8.72;79.51;100016.23;1890260;76;22129;-63
2021/12/03 04:55:27;;;;;;;17.73;6.55;;;;;;;8.70;79.50;100016.36;1873927;76;22177;-62
2021/12/03 04:58:00;;;;;;;11.35;5.05;;;;;;;8.71;79.48;100018.05;1892643;76;22132;-64
2021/12/03 05:00:54;;;;;;;16.70;5.12;;;;;;;8.69;79.48;100021.31;1892759;76;22569;-65
2021/12/03 05:03:28;;;;;;;18.87;5.70;;;;;;;8.69;79.43;100015.53;1892796;76;22141;-62
2021/12/03 05:06:29;;;;;;;28.47;12.75;;;;;;;8.70;79.37;100015.03;1873980;76;22157;-63
2021/12/03 05:08:52;;;;;;;464.48;352.75;;;;;;;8.72;79.26;100017.56;1892814;76;22124;-65
2021/12/03 05:12:05;;;;;;;65.03;40.83;;;;;;;8.76;79.19;100015.81;1866135;75;22202;-63
2021/12/03 05:14:36;;;;;;;26.60;13.03;;;;;;;8.75;79.10;100012.82;1890299;76;22581;-65
2021/12/03 05:17:27;;;;;;;314.77;168.20;;;;;;;8.77;79.02;100006.87;1873973;76;22129;-62
2021/12/03 05:19:59;;;;;;;71.70;41.33;;;;;;;8.77;78.87;100006.87;1892711;76;22572;-62
2021/12/03 05:22:51;;;;;;;301.50;182.47;;;;;;;8.78;78.74;100010.36;1873960;76;22137;-64
2021/12/03 05:25:23;;;;;;;57.70;34.88;;;;;;;8.76;78.66;100012.33;1892772;76;22128;-58
2021/12/03 05:27:55;;;;;;;37.58;20.68;;;;;;;8.77;78.53;100019.28;1873995;76;22132;-59
2021/12/03 05:30:46;;;;;;;38.20;24.82;;;;;;;8.77;78.46;100023.27;1873729;76;22804;-59
2021/12/03 05:33:19;;;;;;;29.30;14.07;;;;;;;8.76;78.70;100026.41;1873850;76;22145;-58
2021/12/03 05:35:51;;;;;;;29.85;15.78;;;;;;;8.79;78.44;100025.27;1873928;76;22133;-58
2021/12/03 05:38:23;;;;;;;19.57;7.95;;;;;;;8.81;78.15;100025.97;1873939;76;22170;-57
2021/12/03 05:40:55;;;;;;;141.53;103.80;;;;;;;8.80;77.98;100028.25;1892652;76;22167;-57
2021/12/03 05:43:45;;;;;;;25.15;13.13;;;;;;;8.80;77.88;100017.66;1873859;76;22160;-58
2021/12/03 05:46:17;;;;;;;30.10;20.00;;;;;;;8.81;77.64;100026.80;1873580;76;22202;-58
2021/12/03 05:49:14;;;;;;;20.15;9.90;;;;;;;8.83;77.60;100031.95;1870183;76;22589;-57
2021/12/03 05:51:46;;;;;;;18.37;7.97;;;;;;;8.88;78.02;100033.67;1873843;76;22198;-58
2021/12/03 05:54:19;;;;;;;19.62;10.20;;;;;;;9.00;78.12;100031.70;1873475;76;22194;-57
2021/12/03 05:57:10;;;;;;;15.65;6.95;;;;;;;9.16;77.56;100034.05;1873858;76;22562;-58
2021/12/03 05:59:42;;;;;;;19.35;10.08;;;;;;;9.30;76.63;100037.20;1873544;76;22157;-58
2021/12/03 06:02:14;;;;;;;13.83;5.97;;;;;;;9.33;75.98;100039.58;1892251;76;22155;-57
2021/12/03 06:05:07;;;;;;;12.55;7.22;;;;;;;9.29;75.76;100039.02;1863514;75;22220;-71
2021/12/03 06:07:46;;;;;;;13.22;5.60;;;;;;;9.26;75.52;100051.23;1892215;76;22163;-67
2021/12/03 06:10:37;;;;;;;16.77;7.55;;;;;;;9.20;75.54;100050.01;1892123;76;22200;-75
2021/12/03 06:13:10;;;;;;;13.98;6.45;;;;;;;9.15;75.54;100046.96;1873423;76;22886;-67
2021/12/03 06:15:42;;;;;;;9.95;3.85;;;;;;;9.13;75.50;100045.45;1892034;76;22204;-63
2021/12/03 06:18:14;;;;;;;11.25;4.83;;;;;;;9.10;75.52;100053.19;1873337;76;22156;-64
2021/12/03 06:20:46;;;;;;;35.28;20.70;;;;;;;9.10;75.50;100056.34;1873552;76;22679;-64
2021/12/03 06:23:19;;;;;;;26.82;13.90;;;;;;;9.10;75.45;100052.36;1889827;76;22160;-64
2021/12/03 06:25:51;;;;;;;27.85;13.68;;;;;;;9.09;75.21;100051.53;1873522;76;22627;-64
2021/12/03 06:28:23;;;;;;;151.60;103.58;;;;;;;9.08;75.20;100056.95;1873156;76;22222;-66
2021/12/03 06:30:55;;;;;;;49.38;31.25;;;;;;;9.08;75.07;100056.95;1873141;76;22161;-64
2021/12/03 06:33:29;;;;;;;160.22;114.52;;;;;;;9.08;75.16;100054.30;1892039;76;22152;-67
2021/12/03 06:36:01;;;;;;;40.80;25.55;;;;;;;9.10;74.99;100057.66;1873320;76;22161;-65
2021/12/03 06:38:33;;;;;;;41.37;27.65;;;;;;;9.12;74.96;100051.71;1873393;76;22177;-61
2021/12/03 06:41:25;;;;;;;13.83;5.20;;;;;;;9.14;74.72;100049.28;1881326;75;22244;-61
2021/12/03 06:43:57;;;;;;;25.77;22.98;;;;;;;9.14;74.53;100059.05;1873266;76;22172;-65
2021/12/03 06:46:30;;;;;;;15.65;6.03;;;;;;;9.14;74.55;100062.52;1873577;76;22152;-65
2021/12/03 06:49:22;;;;;;;19.23;7.70;;;;;;;9.17;74.48;100060.92;1892254;76;22200;-64
2021/12/03 06:51:59;;;;;;;66.90;59.98;;;;;;;9.19;74.41;100062.92;1891955;76;22640;-62
2021/12/03 06:54:31;;;;;;;48.60;38.65;;;;;;;9.19;74.29;100058.95;1873313;76;22153;-64
2021/12/03 06:57:21;;;;;;;26.50;16.55;;;;;;;9.26;74.14;100063.66;1873525;76;22152;-64
2021/12/03 06:59:53;;;;;;;23.18;12.88;;;;;;;9.29;74.10;100068.18;1873200;76;22178;-64
2021/12/03 07:02:24;;;;;;;24.00;18.45;;;;;;;9.35;74.05;100060.13;1873482;76;22629;-65
2021/12/03 07:04:56;;;;;;;23.32;12.43;;;;;;;9.38;73.56;100063.83;1892228;76;22199;-66
2021/12/03 07:07:48;;;;;;;21.23;8.68;;;;;;;9.42;73.42;100061.23;1873195;76;22149;-66
2021/12/03 07:10:20;;;;;;;13.00;7.15;;;;;;;9.45;73.26;100054.28;1873357;76;22145;-66
2021/12/03 07:13:11;;;;;;;18.35;6.85;;;;;;;9.47;73.07;100065.59;1892063;76;22183;-64
2021/12/03 07:15:43;;;;;;;19.42;11.70;;;;;;;9.49;73.02;100067.59;1872986;76;22165;-65
2021/12/03 07:18:16;;;;;;;16.15;6.28;;;;;;;9.48;72.78;100072.56;1873158;76;22145;-67
2021/12/03 07:20:48;;;;;;;15.28;5.60;;;;;;;9.50;72.89;100072.41;1873165;76;22208;-65
2021/12/03 07:23:38;;;;;;;10.70;4.42;;;;;;;9.51;72.79;100074.93;1873270;76;22221;-65
2021/12/03 07:26:10;;;;;;;8.98;4.35;;;;;;;9.52;72.75;100077.92;1892158;76;22173;-64
2021/12/03 07:28:43;;;;;;;15.35;4.70;;;;;;;9.53;72.69;100078.75;1873305;76;22208;-65
2021/12/03 07:31:35;;;;;;;24.85;12.53;;;;;;;9.51;72.70;100093.49;1873488;76;22174;-65
2021/12/03 07:34:09;;;;;;;89.37;70.25;;;;;;;9.51;72.77;100093.49;1873484;76;22200;-64
2021/12/03 07:36:41;;;;;;;29.75;18.23;;;;;;;9.53;72.92;100096.81;1873421;76;22195;-64
2021/12/03 07:39:12;;;;;;;153.82;106.25;;;;;;;9.56;72.90;100079.80;1873472;76;22213;-63
2021/12/03 07:41:44;;;;;;;53.73;36.40;;;;;;;9.58;72.97;100090.58;1873476;76;22157;-64
2021/12/03 07:44:16;;;;;;;158.05;114.17;;;;;;;9.59;72.96;100084.28;1873316;76;22661;-65
2021/12/03 07:46:48;;;;;;;37.38;23.07;;;;;;;9.62;72.99;100081.34;1892193;76;22164;-62
2021/12/03 07:49:21;;;;;;;43.92;29.27;;;;;;;9.66;72.93;100082.73;1892061;76;22207;-63
2021/12/03 07:51:54;;;;;;;43.08;27.25;;;;;;;9.68;73.03;100087.87;1870528;76;22153;-64
2021/12/03 07:54:45;;;;;;;45.78;31.68;;;;;;;9.73;73.09;100095.72;1892370;76;22163;-65
2021/12/03 07:57:17;;;;;;;16.65;7.28;;;;;;;9.77;73.04;100096.27;1889770;76;22177;-65
2021/12/03 07:59:49;;;;;;;13.50;5.50;;;;;;;9.79;73.12;100092.16;1873521;76;22196;-63
2021/12/03 08:02:23;;;;;;;14.43;5.87;;;;;;;9.81;73.11;100092.34;1873071;76;22177;-66
2021/12/03 08:04:54;;;;;;;14.20;5.33;;;;;;;9.84;73.11;100092.05;1873350;76;22220;-65
2021/12/03 08:07:27;;;;;;;18.32;11.33;;;;;;;9.86;73.06;100086.59;1873325;76;22645;-65
2021/12/03 08:09:59;;;;;;;15.98;6.33;;;;;;;9.90;73.08;100091.94;1892101;76;22241;-64
2021/12/03 08:12:31;;;;;;;45.70;33.05;;;;;;;9.93;73.00;100083.20;1873453;76;22225;-66
2021/12/03 08:15:05;;;;;;;286.50;239.65;;;;;;;9.97;73.00;100088.55;1873235;76;22168;-65
2021/12/03 08:17:37;;;;;;;41.55;28.80;;;;;;;9.97;73.07;100085.03;1873446;76;22185;-65
2021/12/03 08:20:11;;;;;;;22.10;10.38;;;;;;;10.00;73.28;100088.73;1870714;76;22156;-64
2021/12/03 08:22:43;;;;;;;35.17;24.37;;;;;;;10.05;73.15;100083.80;1873328;76;22188;-64
2021/12/03 08:25:15;;;;;;;31.35;16.30;;;;;;;10.09;73.11;100081.69;1873110;76;22224;-63
2021/12/03 08:27:47;;;;;;;67.87;53.10;;;;;;;10.10;73.12;100084.18;1873168;76;22208;-64
2021/12/03 08:30:19;;;;;;;29.98;19.30;;;;;;;10.11;73.13;100081.86;1873362;76;22182;-64
2021/12/03 08:32:51;;;;;;;25.40;10.93;;;;;;;10.16;73.27;100081.41;1873484;76;22200;-64
2021/12/03 08:35:23;;;;;;;14.13;5.90;;;;;;;10.18;73.16;100078.95;1873131;76;22218;-64
2021/12/03 08:37:56;;;;;;;25.40;13.25;;;;;;;10.19;73.15;100080.63;1872971;76;22194;-65
2021/12/03 08:40:47;;;;;;;14.43;5.92;;;;;;;10.24;73.26;100072.23;1891966;76;22152;-63
2021/12/03 08:43:19;;;;;;;22.48;7.20;;;;;;;10.27;73.20;100071.94;1892027;76;22148;-64
2021/12/03 08:45:54;;;;;;;18.42;8.33;;;;;;;10.29;73.17;100069.12;1891981;76;22152;-64
2021/12/03 08:48:26;;;;;;;16.97;10.03;;;;;;;10.32;73.23;100068.83;1873047;76;22688;-63
2021/12/03 08:56:54;;;;;;;15.13;6.22;;;;;;;10.35;73.30;100072.48;1891852;76;22244;-65
2021/12/03 08:59:26;;;;;;;13.62;5.35;;;;;;;10.36;73.39;100069.70;1863361;76;23233;-64
2021/12/03 09:01:58;;;;;;;21.73;12.65;;;;;;;10.41;73.49;100067.91;1873317;76;22176;-63
2021/12/03 09:04:30;;;;;;;14.23;7.37;;;;;;;10.44;73.29;100066.26;1873455;76;22177;-65
2021/12/03 09:07:21;;;;;;;17.37;7.92;;;;;;;10.45;73.37;100068.78;1873289;76;22184;-63
2021/12/03 09:09:53;;;;;;;13.78;5.83;;;;;;;10.46;73.29;100049.70;1873286;76;22200;-64
2021/12/03 09:12:45;;;;;;;17.10;6.17;;;;;;;10.49;73.38;100047.57;1873207;76;22172;-62
2021/12/03 09:15:21;;;;;;;19.50;6.20;;;;;;;10.51;73.36;100050.06;1872796;76;22229;-63
2021/12/03 09:20:46;;;;;;;16.42;5.90;;;;;;;10.54;73.30;100046.25;1872493;76;22593;-63
2021/12/03 09:23:25;;;;;;;15.08;5.60;;;;;;;10.55;73.09;100044.78;1862586;76;22666;-64
2021/12/03 09:26:18;;;;;;;19.00;6.10;;;;;;;10.60;73.15;100033.70;1842532;76;22175;-64
2021/12/03 09:29:12;;;;;;;15.32;5.95;;;;;;;10.67;73.27;100032.91;1892072;76;22207;-63
2021/12/03 09:31:47;;;;;;;14.03;4.90;;;;;;;10.75;72.89;100032.96;1873549;76;22170;-64
2021/12/03 09:34:19;;;;;;;16.62;5.62;;;;;;;10.80;72.66;100033.83;1892147;76;22155;-66
2021/12/03 09:36:52;;;;;;;15.78;6.28;;;;;;;10.87;72.54;100034.02;1870525;76;22210;-64
2021/12/03 09:39:24;;;;;;;19.42;6.12;;;;;;;10.88;72.58;100026.41;1873184;76;22533;-64
2021/12/03 09:41:58;;;;;;;16.40;5.30;;;;;;;10.93;72.51;100017.47;1873591;76;22149;-65
2021/12/03 09:44:52;;;;;;;15.03;5.22;;;;;;;11.04;71.98;100008.38;1892399;76;22181;-64
2021/12/03 09:47:24;;;;;;;16.30;5.80;;;;;;;11.09;71.98;100015.38;1870966;76;22194;-65
2021/12/03 09:49:58;;;;;;;17.05;5.53;;;;;;;11.13;71.85;100010.91;1870874;76;22148;-63
2021/12/03 09:52:37;;;;;;;16.90;5.28;;;;;;;11.18;71.35;100004.61;1873377;76;22200;-66
2021/12/03 10:20:19;;;;;;;18.95;6.30;;;;;;;11.57;69.96;99990.77;1873154;76;22602;-65
2021/12/03 10:34:32;;;;;;;17.42;6.40;;;;;;;11.69;69.92;99987.32;1857563;76;27959;-64
2021/12/03 10:46:42;;;;;;;19.67;7.40;;;;;;;11.95;69.13;99984.55;1873893;76;22153;-65
2021/12/03 10:52:04;;;;;;;18.45;6.80;;;;;;;11.98;69.11;99977.56;1876611;76;27884;-65
2021/12/03 11:27:02;;;;;;;20.68;8.13;;;;;;;12.04;67.77;99947.61;1873688;76;22188;-65
2021/12/03 11:44:29;;;;;;;12.93;5.05;;;;;;;12.06;65.08;99937.64;1873672;76;22192;-66
2021/12/03 12:22:38;;;;;;;19.90;6.47;;;;;;;11.36;68.30;99977.10;1873785;76;22192;-65
2021/12/03 12:37:43;;;;;;;23.00;9.60;;;;;;;11.22;69.11;99982.53;1892671;76;22177;-65
2021/12/03 13:09:42;;;;;;;16.05;5.72;;;;;;;10.94;70.21;99969.45;1874009;76;22148;-64
2021/12/03 13:45:45;;;;;;;17.87;7.35;;;;;;;10.44;71.98;99957.38;1892839;76;22141;-62
2021/12/03 14:37:08;;;;;;;21.45;7.05;;;;;;;9.96;73.94;99968.77;1874024;76;22129;-63
2021/12/03 14:39:52;;;;;;;20.00;8.05;;;;;;;9.93;73.91;99966.45;1873988;76;22562;-62
2021/12/03 14:48:40;;;;;;;31.15;13.88;;;;;;;9.91;74.14;99967.57;1874035;76;22137;-64
2021/12/03 14:56:40;;;;;;;21.52;10.30;;;;;;;9.88;74.13;99964.75;1892780;76;22119;-63
2021/12/03 14:59:22;;;;;;;22.17;9.03;;;;;;;9.88;74.20;99977.15;1871282;76;22128;-62
2021/12/03 15:02:03;;;;;;;24.92;10.78;;;;;;;9.84;74.23;99974.48;1874025;76;22169;-63
2021/12/03 15:07:47;;;;;;;32.17;15.13;;;;;;;9.81;74.50;99968.14;1892802;76;22149;-63
2021/12/03 15:10:53;;;;;;;28.12;14.60;;;;;;;9.77;74.69;99960.15;1874018;76;22124;-65
2021/12/03 15:36:00;;;;;;;17.20;6.70;;;;;;;9.62;74.81;99935.48;1874017;76;22620;-64
2021/12/03 15:38:47;;;;;;;20.05;7.00;;;;;;;9.65;74.76;99937.84;1874023;76;22161;-64
2021/12/03 15:41:34;;;;;;;19.60;6.45;;;;;;;9.67;74.66;99936.35;1874037;76;22162;-64
2021/12/03 15:53:18;;;;;;;20.77;6.97;;;;;;;9.72;74.48;99938.89;1874028;76;22137;-64
2021/12/03 15:55:49;;;;;;;22.70;6.55;;;;;;;9.73;74.50;99939.22;1892818;76;22132;-63
2021/12/03 16:04:14;;;;;;;15.68;6.20;;;;;;;9.72;74.64;99951.31;1892815;76;22120;-65
2021/12/03 16:27:49;;;;;;;22.22;7.83;;;;;;;9.58;78.50;99930.63;1874023;76;22165;-64
2021/12/03 16:52:48;;;;;;;21.68;7.00;;;;;;;9.49;78.12;99908.50;1874020;76;22179;-64
2021/12/03 16:55:35;;;;;;;19.92;6.78;;;;;;;9.50;78.24;99903.53;1874023;76;22184;-62
2021/12/03 16:58:06;;;;;;;21.45;7.42;;;;;;;9.48;78.25;99894.41;1892920;76;22144;-63
2021/12/03 17:00:40;;;;;;;19.52;7.35;;;;;;;9.47;78.28;99895.41;1892931;76;22169;-64
2021/12/03 17:03:49;;;;;;;21.80;7.67;;;;;;;9.51;78.32;99895.94;1873909;76;22132;-64
2021/12/03 17:55:58;;;;;;;23.42;7.40;;;;;;;9.47;77.91;99860.94;1892814;76;22128;-63
2021/12/03 18:03:52;;;;;;;19.35;7.67;;;;;;;9.40;78.15;99861.69;1874023;76;22121;-64
2021/12/03 18:15:36;;;;;;;20.75;7.45;;;;;;;9.35;78.32;99874.06;1873993;76;22128;-64
2021/12/03 18:47:43;;;;;;;18.30;6.30;;;;;;;9.33;77.59;99851.36;1874024;76;22129;-64
2021/12/03 18:55:40;;;;;;;20.97;5.85;;;;;;;9.34;77.46;99858.32;1874037;76;22125;-64
2021/12/03 18:58:31;;;;;;;16.87;6.15;;;;;;;9.35;77.38;99863.46;1874019;76;22120;-64
2021/12/03 19:06:46;;;;;;;17.65;6.12;;;;;;;9.40;77.20;99870.96;1874148;76;22158;-64
2021/12/03 19:09:18;;;;;;;23.80;6.42;;;;;;;9.42;77.11;99866.36;1874006;76;22128;-64
2021/12/03 19:14:21;;;;;;;21.82;7.50;;;;;;;9.43;77.07;99867.52;1874153;76;22132;-61
2021/12/03 19:16:53;;;;;;;22.55;7.53;;;;;;;9.45;77.02;99873.98;1874033;76;22112;-62
2021/12/03 19:19:46;;;;;;;21.75;6.83;;;;;;;9.43;77.08;99870.67;1873999;76;22120;-64
2021/12/03 19:22:18;;;;;;;20.23;5.78;;;;;;;9.42;77.09;99867.19;1892825;76;22136;-64
2021/12/03 19:24:57;;;;;;;22.77;7.67;;;;;;;9.44;77.17;99867.03;1874030;76;22157;-65
2021/12/03 19:27:47;;;;;;;21.23;8.35;;;;;;;9.46;77.21;99869.88;1858101;76;27893;-64
2021/12/03 19:30:20;;;;;;;17.30;7.60;;;;;;;9.54;77.04;99871.75;1874046;76;22128;-64
2021/12/03 19:32:51;;;;;;;23.57;7.58;;;;;;;9.59;76.82;99862.84;1874027;76;22128;-64
2021/12/03 19:35:25;;;;;;;19.55;7.10;;;;;;;9.59;76.78;99877.92;1892821;76;22123;-64
2021/12/03 19:38:18;;;;;;;19.80;6.97;;;;;;;9.60;76.83;99859.73;1874003;76;22577;-64
2021/12/03 19:40:59;;;;;;;22.17;7.80;;;;;;;9.59;76.87;99854.06;1892935;76;22136;-62
2021/12/03 19:43:37;;;;;;;22.70;7.50;;;;;;;9.59;76.95;99862.84;1874139;76;22133;-64
2021/12/03 19:46:18;;;;;;;21.68;7.47;;;;;;;9.60;76.97;99859.73;1873180;76;22125;-62
2021/12/03 19:49:34;;;;;;;18.65;6.53;;;;;;;9.61;76.97;99866.19;1874024;76;22132;-64
2021/12/03 19:54:56;;;;;;;21.27;7.22;;;;;;;9.60;77.08;99853.93;1874036;76;22129;-65
2021/12/03 19:57:47;;;;;;;20.12;7.25;;;;;;;9.63;77.18;99856.75;1874021;76;22570;-64
2021/12/03 20:00:22;;;;;;;27.55;8.45;;;;;;;9.63;77.19;99858.08;1892815;76;22120;-64
2021/12/03 20:03:12;;;;;;;23.62;9.33;;;;;;;9.62;77.29;99852.44;1873910;76;22125;-65
2021/12/03 20:05:43;;;;;;;19.95;7.42;;;;;;;9.63;77.34;99860.23;1892828;76;22144;-64